sensor_id;sensor_type;location;lat;lon;timestamp;temperature;humidity
75022;SHT31;63583;49.976;20.182;2022-12-20T00:02:12;-1.68;78.80
75022;SHT31;63583;49.976;20.182;2022-12-20T00:04:38;-1.68;79.65
75022;SHT31;63583;49.976;20.182;2022-12-20T00:07:04;-1.71;81.35
75022;SHT31;63583;49.976;20.182;2022-12-20T00:09:29;-1.75;81.24
75022;SHT31;63583;49.976;20.182;2022-12-20T00:11:55;-1.75;82.40
75022;SHT31;63583;49.976;20.182;2022-12-20T00:14:21;-1.63;82.29
75022;SHT31;63583;49.976;20.182;2022-12-20T00:16:47;-1.57;80.74
75022;SHT31;63583;49.976;20.182;2022-12-20T00:19:13;-1.47;80.66
75022;SHT31;63583;49.976;20.182;2022-12-20T00:21:39;-1.40;81.10
75022;SHT31;63583;49.976;20.182;2022-12-20T00:24:05;-1.32;81.15
75022;SHT31;63583;49.976;20.182;2022-12-20T00:26:33;-1.23;81.17
75022;SHT31;63583;49.976;20.182;2022-12-20T00:28:59;-1.10;81.56
75022;SHT31;63583;49.976;20.182;2022-12-20T00:31:27;-1.02;79.33
75022;SHT31;63583;49.976;20.182;2022-12-20T00:33:54;-0.74;73.38
75022;SHT31;63583;49.976;20.182;2022-12-20T00:36:23;-0.75;75.94
75022;SHT31;63583;49.976;20.182;2022-12-20T00:38:51;-0.68;72.79
75022;SHT31;63583;49.976;20.182;2022-12-20T00:41:21;-0.64;73.93
75022;SHT31;63583;49.976;20.182;2022-12-20T00:43:48;-0.56;73.47
75022;SHT31;63583;49.976;20.182;2022-12-20T00:46:16;-0.56;72.69
75022;SHT31;63583;49.976;20.182;2022-12-20T00:48:42;-0.49;72.36
75022;SHT31;63583;49.976;20.182;2022-12-20T00:51:11;-0.44;72.67
75022;SHT31;63583;49.976;20.182;2022-12-20T00:53:37;-0.38;73.31
75022;SHT31;63583;49.976;20.182;2022-12-20T00:56:05;-0.37;72.69
75022;SHT31;63583;49.976;20.182;2022-12-20T00:58:36;-0.30;73.52
75022;SHT31;63583;49.976;20.182;2022-12-20T01:01:04;-0.27;73.68
75022;SHT31;63583;49.976;20.182;2022-12-20T01:03:30;-0.20;73.94
75022;SHT31;63583;49.976;20.182;2022-12-20T01:05:59;-0.19;74.50
75022;SHT31;63583;49.976;20.182;2022-12-20T01:08:27;-0.14;74.16
75022;SHT31;63583;49.976;20.182;2022-12-20T01:13:32;-0.06;75.35
75022;SHT31;63583;49.976;20.182;2022-12-20T01:16:10;-0.03;76.87
75022;SHT31;63583;49.976;20.182;2022-12-20T01:18:36;-0.01;80.00
75022;SHT31;63583;49.976;20.182;2022-12-20T01:21:04;0.04;77.91
75022;SHT31;63583;49.976;20.182;2022-12-20T01:23:31;0.11;78.22
75022;SHT31;63583;49.976;20.182;2022-12-20T01:25:59;0.15;76.56
75022;SHT31;63583;49.976;20.182;2022-12-20T01:28:25;0.15;78.33
75022;SHT31;63583;49.976;20.182;2022-12-20T01:30:52;0.21;76.32
75022;SHT31;63583;49.976;20.182;2022-12-20T01:33:17;0.26;78.45
75022;SHT31;63583;49.976;20.182;2022-12-20T01:35:57;0.26;77.33
75022;SHT31;63583;49.976;20.182;2022-12-20T01:38:23;0.30;80.51
75022;SHT31;63583;49.976;20.182;2022-12-20T01:40:49;0.29;81.38
75022;SHT31;63583;49.976;20.182;2022-12-20T01:43:17;0.30;80.34
75022;SHT31;63583;49.976;20.182;2022-12-20T01:45:43;0.28;83.75
75022;SHT31;63583;49.976;20.182;2022-12-20T01:48:09;0.29;81.13
75022;SHT31;63583;49.976;20.182;2022-12-20T01:50:36;0.32;83.27
75022;SHT31;63583;49.976;20.182;2022-12-20T01:53:03;0.30;84.03
75022;SHT31;63583;49.976;20.182;2022-12-20T01:55:30;0.32;82.11
75022;SHT31;63583;49.976;20.182;2022-12-20T01:58:03;0.33;84.45
75022;SHT31;63583;49.976;20.182;2022-12-20T02:00:29;0.35;84.18
75022;SHT31;63583;49.976;20.182;2022-12-20T02:02:59;0.33;82.52
75022;SHT31;63583;49.976;20.182;2022-12-20T02:05:26;0.36;86.41
75022;SHT31;63583;49.976;20.182;2022-12-20T02:07:53;0.29;86.85
75022;SHT31;63583;49.976;20.182;2022-12-20T02:10:23;0.28;86.38
75022;SHT31;63583;49.976;20.182;2022-12-20T02:12:58;0.25;86.37
75022;SHT31;63583;49.976;20.182;2022-12-20T02:16:11;0.22;86.08
75022;SHT31;63583;49.976;20.182;2022-12-20T02:18:45;0.26;86.47
75022;SHT31;63583;49.976;20.182;2022-12-20T02:21:33;0.21;86.36
75022;SHT31;63583;49.976;20.182;2022-12-20T02:29:36;0.42;85.80
75022;SHT31;63583;49.976;20.182;2022-12-20T02:32:15;0.43;83.97
75022;SHT31;63583;49.976;20.182;2022-12-20T02:34:41;0.28;84.04
75022;SHT31;63583;49.976;20.182;2022-12-20T02:37:08;0.14;81.52
75022;SHT31;63583;49.976;20.182;2022-12-20T02:39:36;-0.03;79.70
75022;SHT31;63583;49.976;20.182;2022-12-20T02:42:06;-0.22;79.01
75022;SHT31;63583;49.976;20.182;2022-12-20T02:44:34;-0.33;80.47
75022;SHT31;63583;49.976;20.182;2022-12-20T02:47:30;-0.33;81.09
75022;SHT31;63583;49.976;20.182;2022-12-20T02:49:58;-0.40;81.69
75022;SHT31;63583;49.976;20.182;2022-12-20T02:52:26;-0.49;81.32
75022;SHT31;63583;49.976;20.182;2022-12-20T02:54:55;-0.43;81.10
75022;SHT31;63583;49.976;20.182;2022-12-20T02:57:33;-0.67;82.93
75022;SHT31;63583;49.976;20.182;2022-12-20T03:00:04;-0.82;82.85
75022;SHT31;63583;49.976;20.182;2022-12-20T03:02:32;-0.81;83.13
75022;SHT31;63583;49.976;20.182;2022-12-20T03:05:16;-0.79;83.04
75022;SHT31;63583;49.976;20.182;2022-12-20T03:07:44;-0.72;83.38
75022;SHT31;63583;49.976;20.182;2022-12-20T03:10:10;-0.62;83.08
75022;SHT31;63583;49.976;20.182;2022-12-20T03:12:36;-0.67;81.57
75022;SHT31;63583;49.976;20.182;2022-12-20T03:15:01;-0.61;80.56
75022;SHT31;63583;49.976;20.182;2022-12-20T03:17:27;-0.58;80.35
75022;SHT31;63583;49.976;20.182;2022-12-20T03:19:53;-0.61;80.36
75022;SHT31;63583;49.976;20.182;2022-12-20T03:22:19;-0.54;80.74
75022;SHT31;63583;49.976;20.182;2022-12-20T03:24:45;-0.57;80.87
75022;SHT31;63583;49.976;20.182;2022-12-20T03:27:10;-0.56;81.91
75022;SHT31;63583;49.976;20.182;2022-12-20T03:29:36;-0.50;82.50
75022;SHT31;63583;49.976;20.182;2022-12-20T03:32:02;-0.56;81.80
75022;SHT31;63583;49.976;20.182;2022-12-20T03:34:28;-0.71;82.71
75022;SHT31;63583;49.976;20.182;2022-12-20T03:36:54;-0.81;82.17
75022;SHT31;63583;49.976;20.182;2022-12-20T03:39:20;-0.88;83.67
75022;SHT31;63583;49.976;20.182;2022-12-20T03:41:46;-0.88;83.85
75022;SHT31;63583;49.976;20.182;2022-12-20T03:44:11;-0.78;81.93
75022;SHT31;63583;49.976;20.182;2022-12-20T03:46:37;-0.67;81.47
75022;SHT31;63583;49.976;20.182;2022-12-20T03:49:03;-0.45;79.19
75022;SHT31;63583;49.976;20.182;2022-12-20T03:51:29;-0.36;78.33
75022;SHT31;63583;49.976;20.182;2022-12-20T03:53:55;-0.30;78.69
75022;SHT31;63583;49.976;20.182;2022-12-20T03:56:21;-0.30;78.11
75022;SHT31;63583;49.976;20.182;2022-12-20T03:58:46;-0.29;79.15
75022;SHT31;63583;49.976;20.182;2022-12-20T04:01:21;-0.33;76.50
75022;SHT31;63583;49.976;20.182;2022-12-20T04:03:47;-0.60;78.22
75022;SHT31;63583;49.976;20.182;2022-12-20T04:06:14;-0.70;81.33
75022;SHT31;63583;49.976;20.182;2022-12-20T04:08:40;-0.72;80.77
75022;SHT31;63583;49.976;20.182;2022-12-20T04:11:06;-0.64;77.95
75022;SHT31;63583;49.976;20.182;2022-12-20T04:13:51;-0.56;77.77
75022;SHT31;63583;49.976;20.182;2022-12-20T04:16:22;-0.61;78.45
75022;SHT31;63583;49.976;20.182;2022-12-20T04:18:48;-0.58;78.23
75022;SHT31;63583;49.976;20.182;2022-12-20T04:21:15;-0.60;78.34
75022;SHT31;63583;49.976;20.182;2022-12-20T04:23:45;-0.57;77.51
75022;SHT31;63583;49.976;20.182;2022-12-20T04:26:11;-0.47;76.65
75022;SHT31;63583;49.976;20.182;2022-12-20T04:28:37;-0.27;75.75
75022;SHT31;63583;49.976;20.182;2022-12-20T04:31:03;-0.34;78.82
75022;SHT31;63583;49.976;20.182;2022-12-20T04:33:29;-0.43;78.88
75022;SHT31;63583;49.976;20.182;2022-12-20T04:35:56;-0.54;78.54
75022;SHT31;63583;49.976;20.182;2022-12-20T04:38:22;-0.64;78.43
75022;SHT31;63583;49.976;20.182;2022-12-20T04:40:49;-0.72;78.58
75022;SHT31;63583;49.976;20.182;2022-12-20T04:43:15;-0.79;79.04
75022;SHT31;63583;49.976;20.182;2022-12-20T04:45:41;-0.82;78.73
75022;SHT31;63583;49.976;20.182;2022-12-20T04:48:09;-0.62;77.35
75022;SHT31;63583;49.976;20.182;2022-12-20T04:50:35;-0.56;77.16
75022;SHT31;63583;49.976;20.182;2022-12-20T04:53:01;-0.45;76.80
75022;SHT31;63583;49.976;20.182;2022-12-20T04:55:45;-0.51;77.22
75022;SHT31;63583;49.976;20.182;2022-12-20T04:58:11;-0.50;77.16
75022;SHT31;63583;49.976;20.182;2022-12-20T05:00:37;-0.53;77.40
75022;SHT31;63583;49.976;20.182;2022-12-20T05:03:03;-0.65;78.07
75022;SHT31;63583;49.976;20.182;2022-12-20T05:05:29;-0.71;77.93
75022;SHT31;63583;49.976;20.182;2022-12-20T05:07:55;-0.78;78.79
75022;SHT31;63583;49.976;20.182;2022-12-20T05:10:21;-0.75;77.47
75022;SHT31;63583;49.976;20.182;2022-12-20T05:12:47;-0.81;78.76
75022;SHT31;63583;49.976;20.182;2022-12-20T05:15:13;-0.64;78.89
75022;SHT31;63583;49.976;20.182;2022-12-20T05:17:39;-0.33;78.28
75022;SHT31;63583;49.976;20.182;2022-12-20T05:20:05;-0.26;77.70
75022;SHT31;63583;49.976;20.182;2022-12-20T05:22:31;-0.23;77.80
75022;SHT31;63583;49.976;20.182;2022-12-20T05:25:16;-0.31;78.13
75022;SHT31;63583;49.976;20.182;2022-12-20T05:28:01;-0.20;78.05
75022;SHT31;63583;49.976;20.182;2022-12-20T05:30:27;-0.17;77.83
75022;SHT31;63583;49.976;20.182;2022-12-20T05:32:53;-0.27;78.68
75022;SHT31;63583;49.976;20.182;2022-12-20T05:35:19;-0.29;79.22
75022;SHT31;63583;49.976;20.182;2022-12-20T05:37:45;-0.40;80.03
75022;SHT31;63583;49.976;20.182;2022-12-20T05:40:11;-0.41;80.61
75022;SHT31;63583;49.976;20.182;2022-12-20T05:42:37;-0.45;81.50
75022;SHT31;63583;49.976;20.182;2022-12-20T05:45:04;-0.49;81.39
75022;SHT31;63583;49.976;20.182;2022-12-20T05:47:30;-0.60;82.16
75022;SHT31;63583;49.976;20.182;2022-12-20T05:49:59;-0.60;82.70
75022;SHT31;63583;49.976;20.182;2022-12-20T05:52:25;-0.57;82.80
75022;SHT31;63583;49.976;20.182;2022-12-20T05:54:51;-0.56;83.14
75022;SHT31;63583;49.976;20.182;2022-12-20T05:57:17;-0.60;83.40
75022;SHT31;63583;49.976;20.182;2022-12-20T05:59:43;-0.65;83.74
75022;SHT31;63583;49.976;20.182;2022-12-20T06:02:09;-0.50;83.26
75022;SHT31;63583;49.976;20.182;2022-12-20T06:04:36;-0.29;82.47
75022;SHT31;63583;49.976;20.182;2022-12-20T06:07:03;-0.16;82.06
75022;SHT31;63583;49.976;20.182;2022-12-20T06:09:30;-0.23;82.27
75022;SHT31;63583;49.976;20.182;2022-12-20T06:11:56;-0.31;82.64
75022;SHT31;63583;49.976;20.182;2022-12-20T06:14:22;-0.37;82.89
75022;SHT31;63583;49.976;20.182;2022-12-20T06:16:49;-0.44;83.36
75022;SHT31;63583;49.976;20.182;2022-12-20T06:19:15;-0.40;83.09
75022;SHT31;63583;49.976;20.182;2022-12-20T06:21:40;-0.37;82.93
75022;SHT31;63583;49.976;20.182;2022-12-20T06:24:07;-0.36;82.49
75022;SHT31;63583;49.976;20.182;2022-12-20T06:26:33;-0.47;83.03
75022;SHT31;63583;49.976;20.182;2022-12-20T06:29:02;-0.34;82.60
75022;SHT31;63583;49.976;20.182;2022-12-20T06:31:28;-0.37;82.65
75022;SHT31;63583;49.976;20.182;2022-12-20T06:33:54;-0.44;82.97
75022;SHT31;63583;49.976;20.182;2022-12-20T06:36:20;-0.53;83.46
75022;SHT31;63583;49.976;20.182;2022-12-20T06:38:46;-0.41;83.12
75022;SHT31;63583;49.976;20.182;2022-12-20T06:41:11;-0.36;82.97
75022;SHT31;63583;49.976;20.182;2022-12-20T06:43:37;-0.38;83.03
75022;SHT31;63583;49.976;20.182;2022-12-20T06:46:03;-0.45;83.29
75022;SHT31;63583;49.976;20.182;2022-12-20T06:48:29;-0.41;83.48
75022;SHT31;63583;49.976;20.182;2022-12-20T06:50:54;-0.20;82.76
75022;SHT31;63583;49.976;20.182;2022-12-20T06:53:21;-0.24;82.80
75022;SHT31;63583;49.976;20.182;2022-12-20T06:55:46;-0.13;82.22
75022;SHT31;63583;49.976;20.182;2022-12-20T06:58:16;-0.22;82.56
75022;SHT31;63583;49.976;20.182;2022-12-20T07:00:42;-0.33;83.33
75022;SHT31;63583;49.976;20.182;2022-12-20T07:03:08;-0.24;82.75
75022;SHT31;63583;49.976;20.182;2022-12-20T07:05:33;-0.38;83.21
75022;SHT31;63583;49.976;20.182;2022-12-20T07:07:59;-0.45;85.42
75022;SHT31;63583;49.976;20.182;2022-12-20T07:10:27;-0.40;83.77
75022;SHT31;63583;49.976;20.182;2022-12-20T07:12:53;-0.40;83.97
75022;SHT31;63583;49.976;20.182;2022-12-20T07:15:18;-0.20;82.90
75022;SHT31;63583;49.976;20.182;2022-12-20T07:18:01;-0.27;83.24
75022;SHT31;63583;49.976;20.182;2022-12-20T07:21:22;-0.12;82.30
75022;SHT31;63583;49.976;20.182;2022-12-20T07:25:04;-0.13;82.47
75022;SHT31;63583;49.976;20.182;2022-12-20T07:28:22;-0.12;82.65
75022;SHT31;63583;49.976;20.182;2022-12-20T07:31:36;-0.01;82.58
75022;SHT31;63583;49.976;20.182;2022-12-20T07:34:46;-0.05;82.44
75022;SHT31;63583;49.976;20.182;2022-12-20T07:38:17;0.14;81.72
75022;SHT31;63583;49.976;20.182;2022-12-20T07:41:23;0.08;82.10
75022;SHT31;63583;49.976;20.182;2022-12-20T07:44:37;0.07;82.15
75022;SHT31;63583;49.976;20.182;2022-12-20T07:47:10;0.07;81.92
75022;SHT31;63583;49.976;20.182;2022-12-20T07:50:01;0.15;81.71
75022;SHT31;63583;49.976;20.182;2022-12-20T07:53:04;0.24;81.51
75022;SHT31;63583;49.976;20.182;2022-12-20T07:56:14;0.35;81.51
75022;SHT31;63583;49.976;20.182;2022-12-20T07:59:56;0.36;81.30
75022;SHT31;63583;49.976;20.182;2022-12-20T08:03:23;0.50;80.64
75022;SHT31;63583;49.976;20.182;2022-12-20T08:06:37;0.52;80.20
75022;SHT31;63583;49.976;20.182;2022-12-20T08:09:38;0.55;80.80
75022;SHT31;63583;49.976;20.182;2022-12-20T08:12:57;0.62;80.70
75022;SHT31;63583;49.976;20.182;2022-12-20T08:16:07;0.63;80.59
75022;SHT31;63583;49.976;20.182;2022-12-20T08:18:33;0.70;80.56
75022;SHT31;63583;49.976;20.182;2022-12-20T08:20:58;0.64;80.56
75022;SHT31;63583;49.976;20.182;2022-12-20T08:23:25;0.63;80.81
75022;SHT31;63583;49.976;20.182;2022-12-20T08:25:51;0.73;80.50
75022;SHT31;63583;49.976;20.182;2022-12-20T08:28:17;0.76;80.08
75022;SHT31;63583;49.976;20.182;2022-12-20T08:30:43;0.73;80.24
75022;SHT31;63583;49.976;20.182;2022-12-20T08:33:09;0.93;79.85
75022;SHT31;63583;49.976;20.182;2022-12-20T08:35:34;0.97;79.56
75022;SHT31;63583;49.976;20.182;2022-12-20T08:38:00;1.21;78.83
75022;SHT31;63583;49.976;20.182;2022-12-20T08:40:26;1.20;78.99
75022;SHT31;63583;49.976;20.182;2022-12-20T08:42:52;1.35;78.81
75022;SHT31;63583;49.976;20.182;2022-12-20T08:45:17;1.49;77.75
75022;SHT31;63583;49.976;20.182;2022-12-20T08:47:44;1.63;77.02
75022;SHT31;63583;49.976;20.182;2022-12-20T08:50:10;1.60;77.10
75022;SHT31;63583;49.976;20.182;2022-12-20T08:52:36;1.31;78.70
75022;SHT31;63583;49.976;20.182;2022-12-20T08:55:02;1.42;78.41
75022;SHT31;63583;49.976;20.182;2022-12-20T08:57:28;1.52;77.84
75022;SHT31;63583;49.976;20.182;2022-12-20T08:59:54;1.56;77.04
75022;SHT31;63583;49.976;20.182;2022-12-20T09:02:20;1.63;78.02
75022;SHT31;63583;49.976;20.182;2022-12-20T09:04:45;1.90;76.97
75022;SHT31;63583;49.976;20.182;2022-12-20T09:07:12;1.93;76.04
75022;SHT31;63583;49.976;20.182;2022-12-20T09:09:38;2.08;76.17
75022;SHT31;63583;49.976;20.182;2022-12-20T09:12:08;2.21;76.41
75022;SHT31;63583;49.976;20.182;2022-12-20T09:14:33;2.31;75.69
75022;SHT31;63583;49.976;20.182;2022-12-20T09:16:59;2.25;75.75
75022;SHT31;63583;49.976;20.182;2022-12-20T09:19:25;2.31;75.28
75022;SHT31;63583;49.976;20.182;2022-12-20T09:21:51;2.48;75.69
75022;SHT31;63583;49.976;20.182;2022-12-20T09:24:17;2.53;75.33
75022;SHT31;63583;49.976;20.182;2022-12-20T09:26:43;2.67;75.25
75022;SHT31;63583;49.976;20.182;2022-12-20T09:29:09;2.66;74.51
75022;SHT31;63583;49.976;20.182;2022-12-20T09:31:35;2.69;74.87
75022;SHT31;63583;49.976;20.182;2022-12-20T09:34:01;2.69;75.44
75022;SHT31;63583;49.976;20.182;2022-12-20T09:36:29;2.79;75.65
75022;SHT31;63583;49.976;20.182;2022-12-20T09:38:55;2.87;74.30
75022;SHT31;63583;49.976;20.182;2022-12-20T09:41:28;2.99;73.62
75022;SHT31;63583;49.976;20.182;2022-12-20T09:44:03;2.89;74.06
75022;SHT31;63583;49.976;20.182;2022-12-20T09:46:30;2.90;73.85
75022;SHT31;63583;49.976;20.182;2022-12-20T09:48:56;2.86;73.42
75022;SHT31;63583;49.976;20.182;2022-12-20T09:54:27;2.82;74.25
75022;SHT31;63583;49.976;20.182;2022-12-20T09:57:19;2.82;74.06
75022;SHT31;63583;49.976;20.182;2022-12-20T09:59:48;3.03;73.51
75022;SHT31;63583;49.976;20.182;2022-12-20T10:02:19;3.04;73.82
75022;SHT31;63583;49.976;20.182;2022-12-20T10:04:45;3.20;73.55
75022;SHT31;63583;49.976;20.182;2022-12-20T10:20:45;3.52;71.42
75022;SHT31;63583;49.976;20.182;2022-12-20T10:23:20;3.42;72.04
75022;SHT31;63583;49.976;20.182;2022-12-20T10:25:56;3.41;72.31
75022;SHT31;63583;49.976;20.182;2022-12-20T10:28:27;3.34;71.93
75022;SHT31;63583;49.976;20.182;2022-12-20T10:30:53;3.27;72.73
75022;SHT31;63583;49.976;20.182;2022-12-20T10:33:22;3.25;72.99
75022;SHT31;63583;49.976;20.182;2022-12-20T10:35:48;3.20;73.86
75022;SHT31;63583;49.976;20.182;2022-12-20T10:38:16;3.10;74.48
75022;SHT31;63583;49.976;20.182;2022-12-20T10:41:03;3.21;73.28
75022;SHT31;63583;49.976;20.182;2022-12-20T10:43:45;3.31;74.03
75022;SHT31;63583;49.976;20.182;2022-12-20T10:46:13;3.46;72.99
75022;SHT31;63583;49.976;20.182;2022-12-20T10:48:42;3.42;73.66
75022;SHT31;63583;49.976;20.182;2022-12-20T10:51:13;3.54;71.70
75022;SHT31;63583;49.976;20.182;2022-12-20T10:53:58;3.65;72.90
75022;SHT31;63583;49.976;20.182;2022-12-20T10:58:55;3.82;71.17
75022;SHT31;63583;49.976;20.182;2022-12-20T11:01:25;3.83;72.53
75022;SHT31;63583;49.976;20.182;2022-12-20T11:07:50;3.97;72.02
75022;SHT31;63583;49.976;20.182;2022-12-20T11:14:13;3.96;71.43
75022;SHT31;63583;49.976;20.182;2022-12-20T11:17:34;3.90;71.35
75022;SHT31;63583;49.976;20.182;2022-12-20T11:20:41;3.76;71.32
75022;SHT31;63583;49.976;20.182;2022-12-20T11:30:06;4.09;69.88
75022;SHT31;63583;49.976;20.182;2022-12-20T11:33:45;4.30;69.33
75022;SHT31;63583;49.976;20.182;2022-12-20T11:48:44;3.55;73.68
75022;SHT31;63583;49.976;20.182;2022-12-20T11:51:50;3.36;73.51
75022;SHT31;63583;49.976;20.182;2022-12-20T11:54:23;3.18;74.75
75022;SHT31;63583;49.976;20.182;2022-12-20T11:56:57;2.99;74.41
75022;SHT31;63583;49.976;20.182;2022-12-20T11:59:35;2.65;75.77
75022;SHT31;63583;49.976;20.182;2022-12-20T12:05:04;2.55;76.65
75022;SHT31;63583;49.976;20.182;2022-12-20T12:07:34;2.48;77.52
75022;SHT31;63583;49.976;20.182;2022-12-20T12:10:23;2.49;77.33
75022;SHT31;63583;49.976;20.182;2022-12-20T12:12:57;2.39;78.19
75022;SHT31;63583;49.976;20.182;2022-12-20T12:15:31;2.45;77.74
75022;SHT31;63583;49.976;20.182;2022-12-20T12:18:16;2.63;76.68
75022;SHT31;63583;49.976;20.182;2022-12-20T12:26:31;2.72;76.86
75022;SHT31;63583;49.976;20.182;2022-12-20T12:29:03;2.75;76.51
75022;SHT31;63583;49.976;20.182;2022-12-20T12:34:40;2.69;78.32
75022;SHT31;63583;49.976;20.182;2022-12-20T12:47:36;2.49;78.82
75022;SHT31;63583;49.976;20.182;2022-12-20T12:50:05;2.46;79.09
75022;SHT31;63583;49.976;20.182;2022-12-20T12:52:47;2.41;79.95
75022;SHT31;63583;49.976;20.182;2022-12-20T12:55:45;2.48;79.12
75022;SHT31;63583;49.976;20.182;2022-12-20T13:00:57;2.39;79.01
75022;SHT31;63583;49.976;20.182;2022-12-20T13:09:19;2.38;79.33
75022;SHT31;63583;49.976;20.182;2022-12-20T13:11:45;2.32;78.44
75022;SHT31;63583;49.976;20.182;2022-12-20T13:16:54;2.24;78.61
75022;SHT31;63583;49.976;20.182;2022-12-20T13:19:48;2.27;78.16
75022;SHT31;63583;49.976;20.182;2022-12-20T13:22:22;2.21;78.28
75022;SHT31;63583;49.976;20.182;2022-12-20T13:24:55;2.15;78.27
75022;SHT31;63583;49.976;20.182;2022-12-20T13:27:35;2.08;79.04
75022;SHT31;63583;49.976;20.182;2022-12-20T13:45:47;1.73;81.49
75022;SHT31;63583;49.976;20.182;2022-12-20T13:48:16;1.73;80.56
75022;SHT31;63583;49.976;20.182;2022-12-20T13:50:55;1.64;81.14
75022;SHT31;63583;49.976;20.182;2022-12-20T13:53:23;1.63;81.79
75022;SHT31;63583;49.976;20.182;2022-12-20T13:55:50;1.41;81.56
75022;SHT31;63583;49.976;20.182;2022-12-20T13:58:21;1.48;82.56
75022;SHT31;63583;49.976;20.182;2022-12-20T14:00:50;1.45;83.03
75022;SHT31;63583;49.976;20.182;2022-12-20T14:03:29;1.42;82.88
75022;SHT31;63583;49.976;20.182;2022-12-20T14:09:37;1.38;83.36
75022;SHT31;63583;49.976;20.182;2022-12-20T14:12:15;1.41;83.50
75022;SHT31;63583;49.976;20.182;2022-12-20T14:14:49;1.34;83.57
75022;SHT31;63583;49.976;20.182;2022-12-20T14:17:16;1.34;84.46
75022;SHT31;63583;49.976;20.182;2022-12-20T14:19:43;1.31;84.41
75022;SHT31;63583;49.976;20.182;2022-12-20T14:22:10;1.30;85.23
75022;SHT31;63583;49.976;20.182;2022-12-20T14:24:39;1.22;83.68
75022;SHT31;63583;49.976;20.182;2022-12-20T14:27:11;1.21;84.38
75022;SHT31;63583;49.976;20.182;2022-12-20T14:29:38;1.31;83.82
75022;SHT31;63583;49.976;20.182;2022-12-20T14:32:05;1.38;83.34
75022;SHT31;63583;49.976;20.182;2022-12-20T14:34:32;1.41;83.49
75022;SHT31;63583;49.976;20.182;2022-12-20T14:40:15;1.12;85.41
75022;SHT31;63583;49.976;20.182;2022-12-20T14:42:42;1.11;84.97
75022;SHT31;63583;49.976;20.182;2022-12-20T14:47:36;1.21;84.01
75022;SHT31;63583;49.976;20.182;2022-12-20T14:50:06;1.20;83.52
75022;SHT31;63583;49.976;20.182;2022-12-20T14:52:42;1.01;84.67
75022;SHT31;63583;49.976;20.182;2022-12-20T14:55:15;1.03;84.33
75022;SHT31;63583;49.976;20.182;2022-12-20T14:57:53;1.01;85.31
75022;SHT31;63583;49.976;20.182;2022-12-20T15:00:30;1.04;84.76
75022;SHT31;63583;49.976;20.182;2022-12-20T15:10:48;0.97;85.29
75022;SHT31;63583;49.976;20.182;2022-12-20T15:13:16;1.00;85.14
75022;SHT31;63583;49.976;20.182;2022-12-20T15:15:43;0.98;85.68
75022;SHT31;63583;49.976;20.182;2022-12-20T15:18:17;0.91;84.98
75022;SHT31;63583;49.976;20.182;2022-12-20T15:20:49;0.98;84.73
75022;SHT31;63583;49.976;20.182;2022-12-20T15:23:20;0.94;84.89
75022;SHT31;63583;49.976;20.182;2022-12-20T15:25:46;0.91;85.21
75022;SHT31;63583;49.976;20.182;2022-12-20T15:28:19;0.84;85.89
75022;SHT31;63583;49.976;20.182;2022-12-20T15:30:46;0.88;85.13
75022;SHT31;63583;49.976;20.182;2022-12-20T15:33:22;0.80;86.72
75022;SHT31;63583;49.976;20.182;2022-12-20T15:35:48;0.72;87.56
75022;SHT31;63583;49.976;20.182;2022-12-20T15:38:17;0.70;87.63
75022;SHT31;63583;49.976;20.182;2022-12-20T15:43:13;0.64;88.23
75022;SHT31;63583;49.976;20.182;2022-12-20T15:45:42;0.63;88.34
75022;SHT31;63583;49.976;20.182;2022-12-20T15:48:13;0.62;88.54
75022;SHT31;63583;49.976;20.182;2022-12-20T15:50:43;0.62;88.50
75022;SHT31;63583;49.976;20.182;2022-12-20T15:53:13;0.60;87.82
75022;SHT31;63583;49.976;20.182;2022-12-20T15:55:39;0.76;86.90
75022;SHT31;63583;49.976;20.182;2022-12-20T15:58:05;0.85;86.73
75022;SHT31;63583;49.976;20.182;2022-12-20T16:00:31;0.80;86.48
75022;SHT31;63583;49.976;20.182;2022-12-20T16:02:57;0.83;85.98
75022;SHT31;63583;49.976;20.182;2022-12-20T16:05:26;0.79;86.62
75022;SHT31;63583;49.976;20.182;2022-12-20T16:07:51;0.76;87.60
75022;SHT31;63583;49.976;20.182;2022-12-20T16:10:17;0.74;87.83
75022;SHT31;63583;49.976;20.182;2022-12-20T16:12:43;0.73;87.10
75022;SHT31;63583;49.976;20.182;2022-12-20T16:15:18;0.72;87.15
75022;SHT31;63583;49.976;20.182;2022-12-20T16:17:44;0.73;87.22
75022;SHT31;63583;49.976;20.182;2022-12-20T16:20:11;0.69;87.36
75022;SHT31;63583;49.976;20.182;2022-12-20T16:22:37;0.70;86.37
75022;SHT31;63583;49.976;20.182;2022-12-20T16:25:03;0.73;87.03
75022;SHT31;63583;49.976;20.182;2022-12-20T16:27:29;0.77;88.42
75022;SHT31;63583;49.976;20.182;2022-12-20T16:29:55;0.76;88.52
75022;SHT31;63583;49.976;20.182;2022-12-20T16:32:21;0.79;88.49
75022;SHT31;63583;49.976;20.182;2022-12-20T16:34:51;0.77;87.89
75022;SHT31;63583;49.976;20.182;2022-12-20T16:37:17;0.94;85.68
75022;SHT31;63583;49.976;20.182;2022-12-20T16:39:43;1.18;84.57
75022;SHT31;63583;49.976;20.182;2022-12-20T16:42:15;1.34;83.77
75022;SHT31;63583;49.976;20.182;2022-12-20T16:44:42;1.25;84.70
75022;SHT31;63583;49.976;20.182;2022-12-20T16:47:09;1.14;85.75
75022;SHT31;63583;49.976;20.182;2022-12-20T16:49:36;1.07;86.36
75022;SHT31;63583;49.976;20.182;2022-12-20T16:52:03;1.05;85.66
75022;SHT31;63583;49.976;20.182;2022-12-20T16:54:31;1.01;85.54
75022;SHT31;63583;49.976;20.182;2022-12-20T16:56:56;0.98;85.82
75022;SHT31;63583;49.976;20.182;2022-12-20T16:59:24;1.14;85.82
75022;SHT31;63583;49.976;20.182;2022-12-20T17:01:52;1.07;86.23
75022;SHT31;63583;49.976;20.182;2022-12-20T17:04:19;0.97;87.24
75022;SHT31;63583;49.976;20.182;2022-12-20T17:06:45;0.90;87.26
75022;SHT31;63583;49.976;20.182;2022-12-20T17:09:12;0.87;87.24
75022;SHT31;63583;49.976;20.182;2022-12-20T17:11:38;0.85;87.62
75022;SHT31;63583;49.976;20.182;2022-12-20T17:14:04;0.84;87.44
75022;SHT31;63583;49.976;20.182;2022-12-20T17:16:30;0.77;87.79
75022;SHT31;63583;49.976;20.182;2022-12-20T17:18:56;0.76;87.81
75022;SHT31;63583;49.976;20.182;2022-12-20T17:23:59;0.67;87.32
75022;SHT31;63583;49.976;20.182;2022-12-20T17:26:26;0.66;87.46
75022;SHT31;63583;49.976;20.182;2022-12-20T17:28:54;0.63;88.22
75022;SHT31;63583;49.976;20.182;2022-12-20T17:31:25;0.60;87.63
75022;SHT31;63583;49.976;20.182;2022-12-20T17:33:51;0.59;88.40
75022;SHT31;63583;49.976;20.182;2022-12-20T17:36:17;0.52;88.07
75022;SHT31;63583;49.976;20.182;2022-12-20T17:38:43;0.52;88.29
75022;SHT31;63583;49.976;20.182;2022-12-20T17:41:30;0.49;88.10
75022;SHT31;63583;49.976;20.182;2022-12-20T17:43:59;0.50;87.95
75022;SHT31;63583;49.976;20.182;2022-12-20T17:46:25;0.53;87.81
75022;SHT31;63583;49.976;20.182;2022-12-20T17:48:52;0.49;88.20
75022;SHT31;63583;49.976;20.182;2022-12-20T17:51:26;0.49;88.61
75022;SHT31;63583;49.976;20.182;2022-12-20T17:53:55;0.42;88.82
75022;SHT31;63583;49.976;20.182;2022-12-20T17:56:24;0.30;88.31
75022;SHT31;63583;49.976;20.182;2022-12-20T17:58:53;0.30;89.40